createdAt,value
2022-09-27T00:01:31.702Z,67.40
2022-09-27T00:04:09.679Z,60.00
2022-09-27T00:07:07.429Z,61.20
2022-09-27T00:09:39.949Z,57.50
2022-09-27T00:12:14.914Z,53.60
2022-09-27T00:15:12.408Z,51.90
2022-09-27T00:18:07.084Z,49.90
2022-09-27T00:20:40.259Z,45.90
2022-09-27T00:23:11.280Z,45.20
2022-09-27T00:25:43.367Z,41.60
2022-09-27T00:28:44.028Z,43.30
2022-09-27T00:31:55.692Z,43.70
2022-09-27T00:34:28.009Z,40.80
2022-09-27T00:40:50.876Z,39.30
2022-09-27T00:43:27.599Z,38.30
2022-09-27T00:46:28.529Z,40.40
2022-09-27T00:49:07.753Z,40.20
2022-09-27T00:52:04.806Z,40.40
2022-09-27T00:55:25.293Z,40.10
2022-09-27T00:57:59.325Z,37.50
2022-09-27T01:00:30.483Z,36.60
2022-09-27T01:03:04.647Z,36.70
2022-09-27T01:08:40.715Z,37.80
2022-09-27T01:11:30.018Z,39.90
2022-09-27T01:17:54.661Z,35.80
2022-09-27T01:21:23.794Z,39.60
2022-09-27T01:25:05.081Z,39.10
2022-09-27T01:28:06.614Z,37.00
2022-09-27T01:30:48.563Z,37.00
2022-09-27T01:33:32.044Z,35.90
2022-09-27T01:36:28.329Z,35.70
2022-09-27T01:39:18.978Z,35.90
2022-09-27T01:42:22.862Z,35.80
2022-09-27T01:45:05.607Z,36.40
2022-09-27T01:47:52.927Z,34.10
2022-09-27T01:51:14.881Z,34.10
2022-09-27T01:54:20.825Z,31.40
2022-09-27T01:57:44.018Z,30.90
2022-09-27T02:00:22.225Z,31.40
2022-09-27T02:03:23.324Z,31.70
2022-09-27T02:06:06.652Z,32.00
2022-09-27T02:13:05.412Z,31.40
2022-09-27T02:15:44.436Z,31.90
2022-09-27T02:18:22.506Z,30.60
2022-09-27T02:21:23.852Z,33.60
2022-09-27T02:24:26.476Z,32.50
2022-09-27T02:27:04.647Z,33.40
2022-09-27T02:30:32.238Z,32.30
2022-09-27T02:33:30.524Z,30.90
2022-09-27T02:36:26.015Z,31.60
2022-09-27T02:39:23.724Z,31.60
2022-09-27T02:45:27.217Z,29.70
2022-09-27T02:48:08.610Z,30.50
2022-09-27T02:51:31.408Z,29.10
2022-09-27T02:54:30.017Z,31.50
2022-09-27T03:00:23.319Z,36.60
2022-09-27T03:02:59.515Z,34.90
2022-09-27T03:05:38.651Z,36.20
2022-09-27T03:08:10.377Z,33.70
2022-09-27T03:10:41.656Z,32.00
2022-09-27T03:13:11.428Z,29.00
2022-09-27T03:15:46.174Z,27.70
2022-09-27T03:18:21.952Z,27.60
2022-09-27T03:21:02.072Z,28.20
2022-09-27T03:23:43.900Z,28.10
2022-09-27T03:26:22.664Z,28.50
2022-09-27T03:28:55.387Z,29.10
2022-09-27T03:31:27.739Z,27.60
2022-09-27T03:34:04.722Z,27.60
2022-09-27T03:36:43.167Z,26.80
2022-09-27T03:39:16.997Z,26.20
2022-09-27T03:41:51.055Z,26.10
2022-09-27T03:44:45.798Z,25.70
2022-09-27T03:47:43.537Z,26.70
2022-09-27T03:50:17.886Z,26.80
2022-09-27T04:00:10.140Z,26.60
2022-09-27T04:02:48.483Z,27.70
2022-09-27T04:05:20.019Z,29.50
2022-09-27T04:08:40.132Z,28.40
2022-09-27T04:11:41.138Z,27.70
2022-09-27T04:15:29.921Z,31.40
2022-09-27T04:18:05.122Z,27.90
2022-09-27T04:20:40.045Z,28.30
2022-09-27T04:24:00.281Z,28.20
2022-09-27T04:30:20.751Z,28.10
2022-09-27T04:32:58.058Z,28.50
2022-09-27T04:39:43.695Z,30.00
2022-09-27T04:42:14.718Z,27.90
2022-09-27T04:45:34.740Z,30.40
2022-09-27T04:48:29.827Z,30.10
2022-09-27T04:54:32.491Z,25.50
2022-09-27T04:57:51.181Z,26.00
2022-09-27T05:01:11.452Z,26.10
2022-09-27T05:04:32.095Z,24.60
2022-09-27T05:07:54.190Z,29.30
2022-09-27T05:10:26.981Z,32.00
2022-09-27T05:13:25.321Z,30.70
2022-09-27T05:19:48.177Z,33.30
2022-09-27T05:22:22.975Z,34.50
2022-09-27T05:25:17.544Z,33.90
2022-09-27T05:27:52.021Z,33.90
2022-09-27T05:30:30.719Z,33.10
2022-09-27T05:33:05.894Z,33.90
2022-09-27T05:39:08.788Z,38.20
2022-09-27T05:45:32.543Z,31.90
2022-09-27T05:48:06.957Z,30.60
2022-09-27T05:50:41.882Z,32.90
2022-09-27T05:53:18.868Z,32.60
2022-09-27T05:56:41.099Z,29.20
2022-09-27T05:59:36.112Z,28.90
2022-09-27T06:02:07.492Z,28.80
2022-09-27T06:05:05.813Z,28.10
2022-09-27T06:07:35.631Z,26.60
2022-09-27T06:10:06.871Z,27.70
2022-09-27T06:12:37.777Z,27.10
2022-09-27T06:15:10.376Z,27.40
2022-09-27T06:17:39.429Z,27.50
2022-09-27T06:20:11.121Z,26.80
2022-09-27T06:22:40.979Z,25.80
2022-09-27T06:25:10.748Z,26.10
2022-09-27T06:27:40.220Z,27.00
2022-09-27T06:30:13.214Z,26.20
2022-09-27T06:32:44.576Z,26.30
2022-09-27T06:35:15.011Z,24.90
2022-09-27T06:37:44.778Z,24.70
2022-09-27T06:40:14.184Z,26.70
2022-09-27T06:42:43.779Z,28.20
2022-09-27T06:45:13.411Z,27.40
2022-09-27T06:47:44.130Z,25.00
2022-09-27T06:50:19.524Z,24.60
2022-09-27T06:52:58.220Z,22.60
2022-09-27T06:55:33.314Z,23.20
2022-09-27T06:58:22.605Z,24.70
2022-09-27T07:00:55.737Z,24.20
2022-09-27T07:03:40.991Z,24.10
2022-09-27T07:06:24.508Z,25.30
2022-09-27T07:08:58.025Z,24.50
2022-09-27T07:11:32.785Z,20.20
2022-09-27T07:14:09.657Z,17.80
2022-09-27T07:16:38.456Z,17.60
2022-09-27T07:19:14.135Z,20.10
2022-09-27T07:22:56.548Z,21.00
2022-09-27T07:25:33.176Z,24.30
2022-09-27T07:28:31.193Z,27.70
2022-09-27T07:31:04.451Z,25.70
2022-09-27T07:33:43.765Z,28.60
2022-09-27T07:36:17.779Z,28.90
2022-09-27T07:38:52.320Z,28.70
2022-09-27T07:41:48.737Z,29.70
2022-09-27T07:48:11.687Z,27.10
2022-09-27T07:51:11.555Z,26.80
2022-09-27T07:53:46.794Z,25.90
2022-09-27T07:57:30.286Z,23.40
2022-09-27T08:00:02.609Z,21.80
2022-09-27T08:02:59.454Z,21.30
2022-09-27T08:05:33.695Z,19.70
2022-09-27T08:08:05.571Z,18.40
2022-09-27T08:10:39.512Z,18.30
2022-09-27T08:13:35.880Z,19.60
2022-09-27T08:16:57.339Z,17.40
2022-09-27T08:19:30.076Z,19.20
2022-09-27T08:22:03.485Z,18.20
2022-09-27T08:25:04.769Z,18.90
2022-09-27T08:27:38.057Z,16.10
2022-09-27T08:30:25.508Z,14.60
2022-09-27T08:33:07.468Z,12.20
2022-09-27T08:35:39.885Z,12.20
2022-09-27T08:38:14.785Z,12.30
2022-09-27T08:42:02.799Z,9.90
2022-09-27T08:45:07.757Z,13.20
2022-09-27T08:47:45.940Z,11.80
2022-09-27T08:50:39.710Z,11.20
2022-09-27T08:53:50.253Z,9.30
2022-09-27T08:56:46.213Z,9.20
2022-09-27T09:03:06.421Z,5.90
2022-09-27T09:06:06.490Z,6.10
2022-09-27T09:09:11.608Z,5.30
2022-09-27T09:16:03.653Z,5.60
2022-09-27T09:19:27.588Z,6.40
2022-09-27T09:25:45.149Z,5.30
2022-09-27T09:28:44.283Z,5.10
2022-09-27T09:31:26.320Z,6.10
2022-09-27T09:37:17.710Z,5.00
2022-09-27T09:39:53.731Z,5.20
2022-09-27T09:42:49.391Z,4.90
2022-09-27T09:45:27.559Z,5.00
2022-09-27T09:48:05.729Z,4.50
2022-09-27T09:50:43.741Z,4.10
2022-09-27T09:53:43.612Z,4.50
2022-09-27T09:56:23.170Z,4.20
2022-09-27T09:59:21.030Z,4.30
2022-09-27T10:02:31.286Z,4.40
2022-09-27T10:05:26.934Z,3.70
2022-09-27T10:08:25.422Z,3.50
2022-09-27T10:11:23.487Z,3.50
2022-09-27T10:17:43.363Z,3.50
2022-09-27T10:20:47.051Z,3.70
2022-09-27T10:23:30.253Z,3.40
2022-09-27T10:26:04.347Z,3.90
2022-09-27T10:28:41.538Z,3.70
2022-09-27T10:31:42.662Z,3.30
2022-09-27T10:34:20.285Z,3.50
2022-09-27T10:37:03.634Z,3.40
2022-09-27T10:39:33.492Z,3.70
2022-09-27T10:42:04.057Z,3.80
2022-09-27T10:44:33.496Z,4.30
2022-09-27T10:47:09.555Z,4.20
2022-09-27T10:49:40.264Z,3.80
2022-09-27T10:52:15.511Z,3.70
2022-09-27T10:54:54.088Z,3.60
2022-09-27T10:57:28.265Z,4.60
2022-09-27T11:00:00.737Z,3.60
2022-09-27T11:02:34.511Z,3.80
2022-09-27T11:05:15.240Z,3.80
2022-09-27T11:07:55.553Z,5.10
2022-09-27T11:10:28.435Z,4.60
2022-09-27T11:13:14.030Z,3.60
2022-09-27T11:16:07.836Z,4.10
2022-09-27T11:18:44.324Z,4.70
2022-09-27T11:21:20.903Z,4.50
2022-09-27T11:23:59.942Z,4.30
2022-09-27T11:26:39.846Z,4.00
2022-09-27T11:29:20.733Z,3.90
2022-09-27T11:32:05.867Z,3.90
2022-09-27T11:35:00.939Z,4.70
2022-09-27T11:37:58.194Z,4.50
2022-09-27T11:41:03.418Z,4.00
2022-09-27T11:44:17.502Z,3.50
2022-09-27T11:46:57.172Z,3.60
2022-09-27T11:49:49.666Z,4.00
2022-09-27T11:52:42.867Z,3.50
2022-09-27T11:55:34.014Z,3.90
2022-09-27T11:58:55.586Z,3.50
2022-09-27T12:02:14.635Z,3.50
2022-09-27T12:17:50.646Z,3.80
2022-09-27T12:21:10.898Z,4.20
2022-09-27T12:28:00.053Z,3.90
2022-09-27T12:30:40.073Z,3.90
2022-09-27T12:33:22.850Z,4.30
2022-09-27T12:40:33.915Z,8.30
2022-09-27T12:43:13.809Z,9.60
2022-09-27T12:46:36.883Z,7.90
2022-09-27T12:52:56.341Z,4.90
2022-09-27T12:55:45.256Z,5.00
2022-09-27T12:59:03.455Z,5.50
2022-09-27T13:06:24.852Z,8.60
2022-09-27T13:09:43.261Z,7.10
2022-09-27T13:13:04.680Z,9.40
2022-09-27T13:15:42.787Z,8.60
2022-09-27T13:18:54.105Z,7.00
2022-09-27T13:22:12.191Z,5.40
2022-09-27T13:31:15.331Z,4.50
2022-09-27T13:34:44.636Z,6.00
2022-09-27T13:38:06.393Z,9.20
2022-09-27T13:45:01.786Z,11.10
2022-09-27T13:48:39.495Z,8.30
2022-09-27T13:51:39.275Z,9.30
2022-09-27T13:55:27.456Z,9.10
2022-09-27T13:58:07.066Z,10.80
2022-09-27T14:00:44.390Z,19.20
2022-09-27T14:03:23.367Z,21.50
2022-09-27T14:06:21.423Z,22.20
2022-09-27T14:15:30.925Z,17.30
2022-09-27T14:18:06.063Z,15.30
2022-09-27T14:20:45.551Z,14.60
2022-09-27T14:23:23.608Z,13.90
2022-09-27T14:26:45.378Z,12.80
2022-09-27T14:30:29.897Z,12.80
2022-09-27T14:33:54.423Z,14.00
2022-09-27T14:37:07.917Z,14.30
2022-09-27T14:40:51.187Z,27.40
2022-09-27T14:43:46.269Z,11.70
2022-09-27T14:50:35.096Z,9.20
2022-09-27T15:00:44.783Z,7.00
2022-09-27T15:07:15.021Z,7.80
2022-09-27T15:13:24.702Z,7.30
2022-09-27T15:16:24.227Z,6.80
2022-09-27T15:19:48.802Z,6.40
2022-09-27T15:22:52.675Z,8.30
2022-09-27T15:25:34.806Z,7.50
2022-09-27T15:28:09.166Z,9.00
2022-09-27T15:31:08.130Z,11.50
2022-09-27T15:34:16.671Z,7.90
2022-09-27T15:37:23.765Z,9.40
2022-09-27T15:40:31.980Z,12.70
2022-09-27T15:43:04.284Z,14.70
2022-09-27T15:45:35.955Z,12.40
2022-09-27T15:51:44.001Z,11.30
2022-09-27T15:54:14.446Z,17.00
2022-09-27T15:56:43.846Z,18.00
2022-09-27T15:59:21.556Z,12.20
2022-09-27T16:01:52.328Z,12.80
2022-09-27T16:04:21.467Z,11.90
2022-09-27T16:06:50.552Z,14.20
2022-09-27T16:09:20.591Z,19.10
2022-09-27T16:11:51.071Z,22.80
2022-09-27T16:14:19.749Z,19.40
2022-09-27T16:16:52.722Z,55.80
2022-09-27T16:19:22.025Z,40.90
2022-09-27T16:21:53.149Z,29.20
2022-09-27T16:24:26.282Z,31.40
2022-09-27T16:26:56.836Z,39.90
2022-09-27T16:29:25.541Z,32.80
2022-09-27T16:31:54.099Z,26.60
2022-09-27T16:34:24.610Z,24.50
2022-09-27T16:36:53.476Z,32.20
2022-09-27T16:39:24.975Z,30.70
2022-09-27T16:41:54.682Z,47.70
2022-09-27T16:44:25.228Z,36.10
2022-09-27T16:46:54.918Z,41.60
2022-09-27T16:49:43.352Z,28.20
2022-09-27T16:52:13.036Z,27.70
2022-09-27T16:54:43.627Z,29.90
2022-09-27T16:57:15.723Z,32.70
2022-09-27T16:59:48.736Z,32.30
2022-09-27T17:02:18.650Z,33.50
2022-09-27T17:04:47.990Z,39.00
2022-09-27T17:07:18.635Z,40.00
2022-09-27T17:09:48.144Z,46.10
2022-09-27T17:12:17.672Z,84.80
2022-09-27T17:14:47.961Z,79.00
2022-09-27T17:17:17.916Z,43.40
2022-09-27T17:19:48.467Z,42.60
2022-09-27T17:22:19.595Z,36.20
2022-09-27T17:24:49.844Z,41.90
2022-09-27T17:27:23.963Z,42.40
2022-09-27T17:29:57.754Z,40.30
2022-09-27T17:32:27.649Z,40.10
2022-09-27T17:34:58.377Z,40.20
2022-09-27T17:37:29.077Z,39.20
2022-09-27T17:39:59.731Z,51.80
2022-09-27T17:42:29.806Z,43.00
2022-09-27T17:45:00.183Z,42.20
2022-09-27T17:47:48.803Z,45.20
2022-09-27T17:50:27.461Z,41.20
2022-09-27T17:52:58.764Z,40.00
2022-09-27T17:55:29.705Z,49.70
2022-09-27T17:58:02.266Z,69.60
2022-09-27T18:00:33.037Z,70.40
2022-09-27T18:03:03.070Z,71.20
2022-09-27T18:05:33.170Z,72.80
2022-09-27T18:08:04.151Z,60.20
2022-09-27T18:10:35.176Z,55.70
2022-09-27T18:13:06.821Z,57.20
2022-09-27T18:15:38.713Z,51.00
2022-09-27T18:18:09.251Z,52.20
2022-09-27T18:20:40.444Z,53.60
2022-09-27T18:23:12.644Z,49.00
2022-09-27T18:25:42.639Z,57.50
2022-09-27T18:28:14.330Z,55.50
2022-09-27T18:30:44.504Z,52.50
2022-09-27T18:33:14.239Z,58.20
2022-09-27T18:35:44.807Z,56.70
2022-09-27T18:38:14.958Z,54.10
2022-09-27T18:40:56.307Z,54.20
2022-09-27T18:43:28.514Z,50.70
2022-09-27T18:46:24.014Z,51.10
2022-09-27T18:48:54.392Z,47.90
2022-09-27T18:51:31.908Z,49.70
2022-09-27T18:54:08.841Z,48.80
2022-09-27T18:56:44.136Z,48.20
2022-09-27T18:59:16.936Z,46.10
2022-09-27T19:01:54.978Z,42.20
2022-09-27T19:04:26.326Z,47.00
2022-09-27T19:06:57.613Z,46.20
2022-09-27T19:09:29.337Z,44.00
2022-09-27T19:11:58.943Z,41.40
2022-09-27T19:14:28.839Z,44.20
2022-09-27T19:16:59.612Z,41.80
2022-09-27T19:19:28.546Z,40.10
2022-09-27T19:21:59.654Z,37.20
2022-09-27T19:24:35.450Z,37.90
2022-09-27T19:27:05.633Z,38.80
2022-09-27T19:29:37.725Z,39.90
2022-09-27T19:32:07.921Z,39.00
2022-09-27T19:34:39.108Z,37.00
2022-09-27T19:37:09.784Z,36.20
2022-09-27T19:39:40.872Z,36.70
2022-09-27T19:42:10.656Z,35.50
2022-09-27T19:44:39.368Z,30.80
2022-09-27T19:47:09.460Z,34.20
2022-09-27T19:49:41.031Z,31.10
2022-09-27T19:52:11.425Z,31.00
2022-09-27T19:54:40.829Z,30.00
2022-09-27T19:57:13.205Z,27.20
2022-09-27T19:59:44.495Z,27.20
2022-09-27T20:02:13.655Z,29.50
2022-09-27T20:04:44.000Z,30.60
2022-09-27T20:07:17.540Z,30.40
2022-09-27T20:09:47.261Z,27.20
2022-09-27T20:12:17.128Z,28.10
2022-09-27T20:14:47.076Z,26.80
2022-09-27T20:17:19.134Z,26.50
2022-09-27T20:19:48.791Z,26.80
2022-09-27T20:22:17.329Z,26.50
2022-09-27T20:24:49.204Z,27.30
2022-09-27T20:27:20.141Z,26.50
2022-09-27T20:29:49.025Z,24.30
2022-09-27T20:32:27.672Z,23.60
2022-09-27T20:35:01.454Z,24.50
2022-09-27T20:37:30.902Z,24.10
2022-09-27T20:40:02.172Z,23.20
2022-09-27T20:42:32.598Z,23.30
2022-09-27T20:45:03.096Z,23.40
2022-09-27T20:47:33.284Z,23.80
2022-09-27T20:50:03.807Z,23.10
2022-09-27T20:52:34.348Z,22.40
2022-09-27T20:55:07.874Z,23.40
2022-09-27T20:57:56.466Z,24.60
2022-09-27T21:00:27.104Z,22.50
2022-09-27T21:02:58.852Z,25.00
2022-09-27T21:05:28.050Z,23.00
2022-09-27T21:07:59.057Z,23.90
2022-09-27T21:10:28.454Z,23.80
2022-09-27T21:12:59.980Z,24.40
2022-09-27T21:15:33.124Z,24.10
2022-09-27T21:18:03.177Z,27.40
2022-09-27T21:20:32.146Z,31.00
2022-09-27T21:23:01.385Z,30.90
2022-09-27T21:25:32.245Z,29.10
2022-09-27T21:28:03.790Z,27.10
2022-09-27T21:30:33.488Z,25.70
2022-09-27T21:33:06.881Z,24.70
2022-09-27T21:35:36.343Z,25.30
2022-09-27T21:38:05.379Z,24.90
2022-09-27T21:40:36.152Z,23.20
2022-09-27T21:43:07.336Z,24.70
2022-09-27T21:45:37.819Z,26.90
2022-09-27T21:48:07.672Z,25.90
2022-09-27T21:50:37.211Z,26.70
2022-09-27T21:53:07.949Z,27.20
2022-09-27T21:55:38.312Z,27.40
2022-09-27T21:58:08.666Z,28.70
2022-09-27T22:00:37.263Z,28.30
2022-09-27T22:03:08.181Z,29.10
2022-09-27T22:05:36.605Z,31.20
2022-09-27T22:08:06.507Z,30.00
2022-09-27T22:10:36.604Z,30.50
2022-09-27T22:13:05.991Z,30.90
2022-09-27T22:15:36.841Z,28.20
2022-09-27T22:18:08.608Z,26.80
2022-09-27T22:20:37.510Z,25.00
2022-09-27T22:23:06.325Z,26.70
2022-09-27T22:25:34.774Z,25.70
2022-09-27T22:28:04.236Z,27.60
2022-09-27T22:30:36.463Z,26.70
2022-09-27T22:33:06.791Z,25.90
2022-09-27T22:35:37.834Z,27.70
2022-09-27T22:38:09.302Z,25.90
2022-09-27T22:40:39.145Z,25.50
2022-09-27T22:43:08.472Z,25.50
2022-09-27T22:45:39.555Z,24.40
2022-09-27T22:48:11.387Z,23.70
2022-09-27T22:50:39.899Z,23.60
2022-09-27T22:53:09.164Z,24.30
2022-09-27T22:55:40.638Z,24.00
2022-09-27T22:58:11.090Z,23.10
2022-09-27T23:00:41.645Z,23.60
2022-09-27T23:03:10.984Z,22.30
2022-09-27T23:05:40.886Z,21.90
2022-09-27T23:08:09.526Z,21.10
2022-09-27T23:10:38.555Z,20.80
2022-09-27T23:13:08.098Z,21.00
2022-09-27T23:15:37.066Z,20.50
2022-09-27T23:18:06.817Z,20.90
2022-09-27T23:20:35.498Z,20.90
2022-09-27T23:23:06.079Z,19.90
2022-09-27T23:25:37.063Z,19.60
2022-09-27T23:28:06.117Z,19.40
2022-09-27T23:30:34.986Z,19.00
2022-09-27T23:33:03.414Z,18.90
2022-09-27T23:35:33.759Z,18.40
2022-09-27T23:38:02.731Z,19.30
2022-09-27T23:40:32.806Z,20.00
2022-09-27T23:43:01.513Z,18.40
2022-09-27T23:45:33.095Z,18.90
2022-09-27T23:48:04.642Z,20.40
2022-09-27T23:50:33.302Z,18.60
2022-09-27T23:53:02.095Z,19.10
2022-09-27T23:55:35.212Z,19.10
2022-09-27T23:58:07.674Z,19.40
